KMEB

Laurinburg-Maxton Airport

Maxton, North Carolina, USA
METAR KMEB 212352Z AUTO 17003KT 10SM CLR 21/17 A3040 RMK AO2 SLP293 T02110172 10272 20206 51004
Observed Flight Rules
Feb-21 @ 23:52 UTC (5 hours ago) Visual Flight Rules
Wind Visibility Clouds
170° at 3 knots 10 miles
  • Clear skies
Temperatures Readings
Current 21°C / 70°F
Dewpoint 17°C / 63°F
Humidity 78%
Altimeter 30.4" Hg
Pressure 1029.3 hPa
Elevation 67
METAR KMEB 212352Z AUTO 17003KT 10SM CLR 21/17 A3040 RMK AO2 SLP293 T02110172 10272 20206 51004
Observed Flight Rules
Feb-21 @ 23:52 UTC
(5 hours ago)
VFR
Wind Visibility
170° at 3 knots 10 miles
Clouds
  • Clear skies
Temperature Dewpoint
21°C / 70°F 17°C / 63°F
Humidity Altimeter Pressure
78% 30.4" Hg 1029.3 hPa